Time;durP1;ratioP1;P1;durP2;ratioP2;P2;SDS_P1;SDS_P2;PMS_P1;PMS_P2;Temp;Humidity;BMP_temperature;BMP_pressure;BME280_temperature;BME280_humidity;BME280_pressure;Samples;Min_cycle;Max_cycle;Signal;HPM_P1;HPM_P2
2022/04/28 00:02:20;;;;;;;10.60;5.17;;;9.60;1.00;;;;;;5016467;28;20186;-83
2022/04/28 00:04:46;;;;;;;11.23;5.63;;;9.50;1.00;;;;;;5016506;28;20710;-81
2022/04/28 00:07:12;;;;;;;9.37;5.20;;;9.50;1.00;;;;;;5019418;28;20189;-80
2022/04/28 00:09:37;;;;;;;11.07;6.13;;;9.50;1.00;;;;;;5035954;28;20170;-83
2022/04/28 00:12:04;;;;;;;8.80;5.17;;;9.50;1.00;;;;;;5051335;28;20177;-84
2022/04/28 00:14:30;;;;;;;9.50;4.80;;;9.50;1.00;;;;;;5035762;28;20177;-80
2022/04/28 00:16:57;;;;;;;11.53;5.07;;;9.40;1.00;;;;;;5035546;28;20181;-82
2022/04/28 00:19:22;;;;;;;9.93;5.10;;;9.40;1.00;;;;;;5035791;28;20530;-82
2022/04/28 00:21:48;;;;;;;10.20;4.83;;;9.50;1.00;;;;;;5035851;28;20177;-81
2022/04/28 00:24:14;;;;;;;13.60;5.17;;;9.40;1.00;;;;;;5041565;28;20176;-80
2022/04/28 00:26:39;;;;;;;13.27;4.70;;;9.50;1.00;;;;;;5049327;28;20260;-83
2022/04/28 00:29:05;;;;;;;11.40;5.70;;;9.30;1.00;;;;;;5040963;28;20201;-83
2022/04/28 00:31:31;;;;;;;8.17;5.07;;;9.30;1.00;;;;;;5035312;28;20182;-82
2022/04/28 00:33:56;;;;;;;10.30;5.70;;;9.30;1.00;;;;;;5035362;28;20182;-81
2022/04/28 00:36:22;;;;;;;11.97;5.90;;;9.30;1.00;;;;;;5035535;28;20645;-82
2022/04/28 00:38:48;;;;;;;10.20;5.37;;;9.50;1.00;;;;;;5033681;28;20197;-82
2022/04/28 00:41:13;;;;;;;11.90;5.47;;;9.20;1.00;;;;;;5035546;28;20209;-83
2022/04/28 00:43:53;;;;;;;9.80;5.60;;;9.30;1.00;;;;;;5035603;28;20631;-83
2022/04/28 00:46:20;;;;;;;12.67;5.23;;;9.20;1.00;;;;;;5035424;28;20177;-81
2022/04/28 00:51:32;;;;;;;10.30;5.53;;;9.10;1.00;;;;;;5055393;28;20184;-80
2022/04/28 00:54:00;;;;;;;13.40;5.40;;;9.10;1.00;;;;;;5054183;28;20514;-82
2022/04/28 00:56:30;;;;;;;10.40;5.43;;;9.20;1.00;;;;;;5055384;28;20165;-82
2022/04/28 00:58:58;;;;;;;12.67;5.20;;;9.10;1.00;;;;;;5055259;28;20165;-83
2022/04/28 01:01:24;;;;;;;11.47;5.30;;;9.20;1.00;;;;;;5055488;28;20304;-80
2022/04/28 01:03:50;;;;;;;13.07;5.57;;;9.20;1.00;;;;;;5055508;28;20208;-79
2022/04/28 01:06:16;;;;;;;13.53;5.37;;;9.10;1.00;;;;;;5066457;28;20220;-79
2022/04/28 01:08:42;;;;;;;9.93;5.97;;;9.10;1.00;;;;;;5049847;28;20189;-82
2022/04/28 01:11:08;;;;;;;13.30;5.70;;;9.20;1.00;;;;;;5037044;28;20178;-80
2022/04/28 01:13:34;;;;;;;10.60;5.90;;;9.20;1.00;;;;;;5028888;28;20253;-82
2022/04/28 01:16:01;;;;;;;8.87;5.00;;;9.20;1.00;;;;;;5015634;28;20594;-80
2022/04/28 01:18:26;;;;;;;11.73;5.40;;;9.10;1.00;;;;;;5015929;28;20532;-84
2022/04/28 01:20:52;;;;;;;9.47;4.90;;;9.10;1.00;;;;;;5015927;28;20206;-81
2022/04/28 01:23:20;;;;;;;9.83;5.40;;;9.00;1.00;;;;;;5015190;28;20202;-82
2022/04/28 01:25:45;;;;;;;13.83;5.77;;;8.90;1.00;;;;;;5015281;28;20209;-79
2022/04/28 01:28:11;;;;;;;13.33;6.00;;;9.00;1.00;;;;;;5014890;28;20530;-81
2022/04/28 01:30:37;;;;;;;12.50;5.53;;;9.10;1.00;;;;;;5022236;28;20182;-81
2022/04/28 01:33:04;;;;;;;11.03;5.77;;;9.00;1.00;;;;;;5024284;28;20170;-79
2022/04/28 01:35:31;;;;;;;14.63;6.23;;;8.90;1.00;;;;;;5023998;28;20174;-82
2022/04/28 01:37:57;;;;;;;13.60;6.30;;;8.90;1.00;;;;;;5023467;28;20190;-79
2022/04/28 01:40:23;;;;;;;8.50;5.40;;;8.90;1.00;;;;;;5026728;28;20202;-81
2022/04/28 01:42:50;;;;;;;10.07;6.13;;;8.80;1.00;;;;;;5025387;28;20265;-81
2022/04/28 01:45:17;;;;;;;10.43;5.80;;;8.70;1.00;;;;;;5026608;28;20174;-80
2022/04/28 01:47:43;;;;;;;8.87;5.13;;;8.70;1.00;;;;;;5016113;28;20233;-81
2022/04/28 01:50:11;;;;;;;14.80;5.53;;;8.60;1.00;;;;;;5015233;28;20167;-83
2022/04/28 01:55:24;;;;;;;17.00;6.07;;;8.60;1.00;;;;;;5015060;28;20170;-82
2022/04/28 01:57:50;;;;;;;9.97;5.30;;;8.50;1.00;;;;;;5014474;28;20599;-83
2022/04/28 02:00:17;;;;;;;10.73;6.00;;;8.50;1.00;;;;;;5014417;28;20190;-83
2022/04/28 02:02:43;;;;;;;11.97;5.93;;;8.50;1.00;;;;;;5014453;28;20178;-82
2022/04/28 02:05:11;;;;;;;10.23;5.77;;;8.60;1.00;;;;;;5014599;28;20224;-81
2022/04/28 02:07:37;;;;;;;10.57;5.60;;;8.40;1.00;;;;;;5013929;28;20214;-83
2022/04/28 02:10:05;;;;;;;14.20;6.40;;;8.40;1.00;;;;;;5014221;28;20708;-79
2022/04/28 02:12:30;;;;;;;11.73;6.77;;;8.40;1.00;;;;;;5013771;28;20158;-81
2022/04/28 02:14:56;;;;;;;9.67;5.90;;;8.40;1.00;;;;;;5014076;28;20181;-83
2022/04/28 02:17:26;;;;;;;13.37;6.23;;;8.50;1.00;;;;;;5013711;28;20190;-79
2022/04/28 02:19:53;;;;;;;10.30;6.40;;;8.50;1.00;;;;;;5013943;28;20243;-83
2022/04/28 02:22:19;;;;;;;11.10;6.23;;;8.50;1.00;;;;;;5012780;28;20182;-82
2022/04/28 02:24:45;;;;;;;14.67;6.70;;;8.40;1.00;;;;;;5013974;28;20162;-83
2022/04/28 02:27:11;;;;;;;13.00;6.20;;;8.40;1.00;;;;;;5013712;28;20181;-84
2022/04/28 02:29:36;;;;;;;12.10;6.20;;;8.40;1.00;;;;;;5014373;28;20174;-81
2022/04/28 02:32:03;;;;;;;13.53;6.40;;;8.40;1.00;;;;;;5014846;28;20626;-81
2022/04/28 02:34:29;;;;;;;10.97;6.20;;;8.40;1.00;;;;;;5013508;28;20170;-83
2022/04/28 02:36:55;;;;;;;12.23;6.93;;;8.40;1.00;;;;;;5014789;28;20174;-81
2022/04/28 02:39:21;;;;;;;11.70;5.73;;;8.30;1.00;;;;;;5019625;28;20171;-79
2022/04/28 02:41:47;;;;;;;12.47;6.17;;;8.30;1.00;;;;;;5024541;28;20184;-80
2022/04/28 02:44:14;;;;;;;10.67;6.63;;;8.30;1.00;;;;;;5027979;28;20209;-80
2022/04/28 02:46:42;;;;;;;11.90;6.43;;;8.30;1.00;;;;;;5013112;28;20174;-81
2022/04/28 02:49:09;;;;;;;9.23;6.33;;;8.40;1.00;;;;;;5014102;28;20154;-82
2022/04/28 02:51:37;;;;;;;12.93;6.60;;;8.40;1.00;;;;;;5013926;28;20208;-82
2022/04/28 02:54:03;;;;;;;9.60;6.43;;;8.30;1.00;;;;;;5012346;28;20249;-82
2022/04/28 02:56:29;;;;;;;11.90;6.63;;;8.40;1.00;;;;;;5013824;28;20166;-81
2022/04/28 02:58:55;;;;;;;10.53;6.37;;;8.40;1.00;;;;;;5013764;28;20607;-82
2022/04/28 03:01:22;;;;;;;16.97;6.43;;;8.40;1.00;;;;;;5016808;28;20267;-81
2022/04/28 03:03:47;;;;;;;14.30;5.87;;;8.30;1.00;;;;;;5017655;28;20173;-82
2022/04/28 03:11:41;;;;;;;12.27;7.27;;;8.30;1.00;;;;;;5017339;28;20184;-81
2022/04/28 03:14:09;;;;;;;13.07;6.70;;;8.20;1.00;;;;;;5017144;28;20167;-81
2022/04/28 03:16:35;;;;;;;9.93;6.60;;;8.30;1.00;;;;;;5017520;28;20200;-83
2022/04/28 03:19:01;;;;;;;14.47;6.27;;;8.30;1.00;;;;;;5017519;28;20643;-81
2022/04/28 03:21:27;;;;;;;12.07;7.13;;;8.30;1.00;;;;;;5017345;28;20206;-81
2022/04/28 03:23:53;;;;;;;11.83;6.67;;;8.10;1.00;;;;;;5017873;28;20641;-79
2022/04/28 03:26:19;;;;;;;11.20;6.70;;;8.10;1.00;;;;;;5017408;28;20174;-83
2022/04/28 03:28:45;;;;;;;13.10;6.70;;;8.10;1.00;;;;;;5017034;28;20166;-84
2022/04/28 03:31:11;;;;;;;10.23;6.70;;;8.00;1.00;;;;;;5017315;28;20531;-82
2022/04/28 03:33:37;;;;;;;14.87;7.40;;;8.10;1.00;;;;;;5016928;28;20163;-80
2022/04/28 03:36:50;;;;;;;13.80;6.97;;;8.00;1.00;;;;;;5019883;28;20178;-78
2022/04/28 03:38:49;;;;;;;10.37;6.20;;;8.00;1.00;;;;;;5033877;28;20261;-80
2022/04/28 03:41:15;;;;;;;12.37;6.40;;;8.00;1.00;;;;;;5031730;28;20210;-80
2022/04/28 03:43:41;;;;;;;17.20;8.10;;;7.90;1.00;;;;;;5017743;28;20204;-83
2022/04/28 03:46:06;;;;;;;12.27;6.27;;;7.80;1.00;;;;;;5018948;28;20170;-82
2022/04/28 03:48:33;;;;;;;14.57;7.07;;;7.70;1.00;;;;;;5017304;28;20158;-80
2022/04/28 03:50:59;;;;;;;12.50;7.20;;;7.80;1.00;;;;;;5018723;28;20220;-83
2022/04/28 03:53:24;;;;;;;13.13;6.77;;;7.60;1.00;;;;;;5018962;28;20167;-81
2022/04/28 03:55:50;;;;;;;12.50;7.33;;;7.60;1.00;;;;;;5017663;28;20209;-81
2022/04/28 03:58:16;;;;;;;10.77;6.97;;;7.60;1.00;;;;;;5016760;28;20174;-81
2022/04/28 04:00:43;;;;;;;10.37;6.80;;;7.70;1.00;;;;;;5015318;28;20218;-80
2022/04/28 04:03:08;;;;;;;12.00;6.77;;;7.70;1.00;;;;;;5016655;28;20231;-82
2022/04/28 04:05:34;;;;;;;16.10;8.33;;;7.60;1.00;;;;;;5016497;28;20205;-82
2022/04/28 04:07:59;;;;;;;11.43;6.67;;;7.60;1.00;;;;;;5014910;28;20182;-82
2022/04/28 04:10:25;;;;;;;11.93;7.40;;;7.60;1.00;;;;;;5016493;28;20216;-81
2022/04/28 04:12:52;;;;;;;13.90;8.27;;;7.60;1.00;;;;;;5015589;28;20171;-82
2022/04/28 04:15:17;;;;;;;15.23;7.83;;;7.50;1.00;;;;;;5015984;28;20162;-81
2022/04/28 04:17:45;;;;;;;16.00;7.40;;;7.40;1.00;;;;;;5016928;28;20224;-83
2022/04/28 04:20:11;;;;;;;10.77;6.93;;;7.50;1.00;;;;;;5019482;28;20222;-82
2022/04/28 04:22:37;;;;;;;13.67;7.93;;;7.50;1.00;;;;;;5034277;28;20218;-81
2022/04/28 04:25:04;;;;;;;12.23;7.30;;;7.40;1.00;;;;;;5036986;28;20178;-81
2022/04/28 04:27:30;;;;;;;14.27;7.20;;;7.40;1.00;;;;;;5032503;28;20182;-81
2022/04/28 04:29:56;;;;;;;15.87;8.20;;;7.30;1.00;;;;;;5034013;28;20175;-82
2022/04/28 04:32:25;;;;;;;13.47;8.73;;;7.40;1.00;;;;;;5025012;28;20538;-80
2022/04/28 04:34:52;;;;;;;12.33;7.60;;;7.30;1.00;;;;;;5021308;28;20227;-81
2022/04/28 04:37:17;;;;;;;14.00;7.53;;;7.30;1.00;;;;;;5019781;28;20182;-82
2022/04/28 04:39:44;;;;;;;12.93;6.93;;;7.30;1.00;;;;;;5017291;28;20255;-81
2022/04/28 04:42:16;;;;;;;12.37;7.37;;;7.30;1.00;;;;;;5016154;28;20216;-83
2022/04/28 04:44:42;;;;;;;16.73;8.40;;;7.30;1.00;;;;;;5016436;28;20162;-81
2022/04/28 04:47:08;;;;;;;15.73;7.40;;;7.30;1.00;;;;;;5016436;28;20169;-84
2022/04/28 04:49:33;;;;;;;13.03;8.17;;;7.30;1.00;;;;;;5016161;28;20171;-83
2022/04/28 04:52:01;;;;;;;16.93;8.10;;;7.30;1.00;;;;;;5016043;28;20248;-82
2022/04/28 04:54:27;;;;;;;15.50;7.60;;;7.40;1.00;;;;;;5016173;28;20165;-80
2022/04/28 04:56:53;;;;;;;17.70;8.33;;;7.50;1.00;;;;;;5018558;28;20166;-79
2022/04/28 04:59:18;;;;;;;15.23;7.23;;;7.60;1.00;;;;;;5019201;28;20170;-80
2022/04/28 05:01:44;;;;;;;13.23;7.43;;;7.40;1.00;;;;;;5022791;28;20265;-82
2022/04/28 05:04:12;;;;;;;17.70;8.63;;;7.40;1.00;;;;;;5016576;28;20166;-81
2022/04/28 05:06:37;;;;;;;13.37;8.20;;;7.40;1.00;;;;;;5017928;28;20158;-81
2022/04/28 05:09:04;;;;;;;18.60;8.73;;;7.50;1.00;;;;;;5018862;28;20213;-81
2022/04/28 05:11:30;;;;;;;13.57;8.70;;;7.70;1.00;;;;;;5020658;28;20174;-84
2022/04/28 05:13:55;;;;;;;15.57;8.17;;;7.70;1.00;;;;;;5018197;28;20189;-84
2022/04/28 05:16:21;;;;;;;15.07;8.63;;;7.70;1.00;;;;;;5023244;28;20677;-82
2022/04/28 05:18:49;;;;;;;15.87;9.10;;;7.80;1.00;;;;;;5030417;28;20174;-82
2022/04/28 05:21:14;;;;;;;15.57;8.23;;;7.80;1.00;;;;;;5031051;28;20202;-82
2022/04/28 05:23:40;;;;;;;16.40;8.13;;;7.90;1.00;;;;;;5022290;28;20658;-83
2022/04/28 05:26:06;;;;;;;11.60;8.33;;;8.00;1.00;;;;;;5031944;28;20250;-82
2022/04/28 05:28:31;;;;;;;13.57;8.20;;;7.80;1.00;;;;;;5032770;28;20162;-80
2022/04/28 05:30:57;;;;;;;13.93;8.97;;;7.90;1.00;;;;;;5031931;28;20207;-83
2022/04/28 05:33:24;;;;;;;17.00;8.20;;;8.00;1.00;;;;;;5020494;28;20221;-82
2022/04/28 05:35:50;;;;;;;13.30;8.23;;;7.80;1.00;;;;;;5017988;28;20178;-82
2022/04/28 05:38:16;;;;;;;16.80;8.87;;;7.80;1.00;;;;;;5018580;28;20181;-84
2022/04/28 05:40:44;;;;;;;12.50;8.70;;;7.80;1.00;;;;;;5015673;28;20198;-82
2022/04/28 05:45:56;;;;;;;17.60;10.00;;;7.90;1.00;;;;;;5015925;28;20186;-84
2022/04/28 05:48:22;;;;;;;17.53;9.03;;;8.00;1.00;;;;;;5014773;28;20182;-80
2022/04/28 05:50:47;;;;;;;18.00;9.50;;;8.10;1.00;;;;;;5015239;28;20224;-81
2022/04/28 05:53:13;;;;;;;14.07;8.07;;;8.10;1.00;;;;;;5015675;28;20531;-82
2022/04/28 05:55:46;;;;;;;15.37;9.67;;;8.20;1.00;;;;;;5018399;28;20256;-79
2022/04/28 05:58:11;;;;;;;14.87;9.30;;;8.20;1.00;;;;;;5017567;28;20536;-81
2022/04/28 06:00:37;;;;;;;13.70;9.30;;;8.20;1.00;;;;;;5016426;28;20212;-82
2022/04/28 06:03:03;;;;;;;16.03;9.27;;;8.30;1.00;;;;;;5035660;28;20169;-79
2022/04/28 06:05:28;;;;;;;12.63;8.67;;;8.30;1.00;;;;;;5033912;28;20838;-78
2022/04/28 06:07:55;;;;;;;16.80;9.80;;;8.40;1.00;;;;;;5033693;28;20209;-84
2022/04/28 06:10:21;;;;;;;15.93;10.03;;;8.50;1.00;;;;;;5032971;28;20181;-82
2022/04/28 06:12:46;;;;;;;17.53;9.00;;;8.70;1.00;;;;;;5034647;28;20533;-81
2022/04/28 06:15:15;;;;;;;19.63;10.23;;;8.50;1.00;;;;;;5034252;28;20181;-81
2022/04/28 06:17:41;;;;;;;17.53;10.80;;;8.70;1.00;;;;;;5035317;28;20193;-81
2022/04/28 06:20:08;;;;;;;14.80;9.83;;;8.70;1.00;;;;;;5035263;28;20201;-82
2022/04/28 06:22:34;;;;;;;17.47;11.03;;;8.80;1.00;;;;;;5050430;28;20173;-83
2022/04/28 06:25:00;;;;;;;14.30;9.83;;;8.90;1.00;;;;;;5034920;28;20181;-79
2022/04/28 06:27:28;;;;;;;20.00;11.70;;;9.00;1.00;;;;;;5041529;28;20184;-82
2022/04/28 06:29:53;;;;;;;18.83;11.00;;;9.00;1.00;;;;;;5053745;28;20248;-81
2022/04/28 06:32:20;;;;;;;18.03;10.77;;;9.30;1.00;;;;;;5053815;28;20661;-79
2022/04/28 06:34:46;;;;;;;17.47;10.63;;;9.10;1.00;;;;;;5051224;28;20247;-78
2022/04/28 06:37:14;;;;;;;14.80;10.07;;;9.20;1.00;;;;;;5053542;28;20633;-81
2022/04/28 06:39:40;;;;;;;17.60;11.43;;;9.20;1.00;;;;;;5052728;28;20173;-80
2022/04/28 06:42:07;;;;;;;18.77;11.10;;;9.20;1.00;;;;;;5034209;28;20208;-79
2022/04/28 06:44:33;;;;;;;16.90;10.37;;;9.40;1.00;;;;;;5034496;28;20168;-82
2022/04/28 06:46:59;;;;;;;15.33;11.53;;;9.50;1.00;;;;;;5049914;28;20616;-79
2022/04/28 06:49:25;;;;;;;19.50;12.57;;;9.60;1.00;;;;;;5034572;28;20203;-81
2022/04/28 06:51:50;;;;;;;15.97;11.10;;;10.00;1.00;;;;;;5033429;28;20169;-80
2022/04/28 06:54:16;;;;;;;21.67;11.60;;;10.00;1.00;;;;;;5032887;28;20208;-80
2022/04/28 06:56:42;;;;;;;17.73;11.33;;;9.90;1.00;;;;;;5019865;28;20202;-77
2022/04/28 06:59:08;;;;;;;14.93;9.77;;;9.90;1.00;;;;;;5014643;28;20166;-80
2022/04/28 07:01:33;;;;;;;18.57;11.93;;;9.80;1.00;;;;;;5015619;28;20237;-84
2022/04/28 07:03:59;;;;;;;18.60;11.83;;;9.80;1.00;;;;;;5014714;28;20178;-84
2022/04/28 07:06:25;;;;;;;19.70;11.53;;;9.90;1.00;;;;;;5012844;28;20197;-81
2022/04/28 07:08:50;;;;;;;17.30;10.77;;;10.00;1.00;;;;;;5021727;28;20178;-80
2022/04/28 07:11:16;;;;;;;19.77;11.60;;;10.00;1.00;;;;;;5027922;28;20186;-79
2022/04/28 07:13:42;;;;;;;20.60;11.53;;;10.00;1.00;;;;;;5026588;28;20201;-82
2022/04/28 07:16:07;;;;;;;20.73;12.90;;;9.90;1.00;;;;;;5024656;28;20202;-82
2022/04/28 07:18:33;;;;;;;18.60;11.60;;;10.00;1.00;;;;;;5015656;28;20629;-79
2022/04/28 07:21:05;;;;;;;16.67;11.93;;;10.10;1.00;;;;;;5015441;28;20214;-82
2022/04/28 07:23:31;;;;;;;20.67;12.37;;;10.30;1.00;;;;;;5022762;28;20189;-81
2022/04/28 07:25:59;;;;;;;17.37;12.13;;;10.40;1.00;;;;;;5033544;28;20646;-80
2022/04/28 07:28:24;;;;;;;20.17;12.60;;;10.60;1.00;;;;;;5034080;28;20170;-84
2022/04/28 07:30:51;;;;;;;18.03;12.10;;;10.70;1.00;;;;;;5033866;28;20535;-79
2022/04/28 07:33:18;;;;;;;15.70;11.70;;;10.70;1.00;;;;;;5034092;28;20243;-81
2022/04/28 07:35:43;;;;;;;17.60;12.30;;;10.70;1.00;;;;;;5035782;28;20645;-82
2022/04/28 07:38:09;;;;;;;17.13;11.37;;;10.60;1.00;;;;;;5035410;28;20190;-85
2022/04/28 07:40:36;;;;;;;17.37;11.57;;;10.50;1.00;;;;;;5037924;28;20735;-82
2022/04/28 07:43:03;;;;;;;16.70;11.53;;;10.60;1.00;;;;;;5044945;28;20158;-78
2022/04/28 07:45:29;;;;;;;20.13;11.80;;;10.80;1.00;;;;;;5044221;28;20634;-82
2022/04/28 07:47:55;;;;;;;16.20;11.73;;;10.90;1.00;;;;;;5037220;28;20177;-81
2022/04/28 07:50:22;;;;;;;17.23;11.93;;;11.10;1.00;;;;;;5038083;28;20180;-84
2022/04/28 07:52:48;;;;;;;17.77;12.17;;;11.20;1.00;;;;;;5037869;28;20173;-81
2022/04/28 07:55:14;;;;;;;14.93;11.23;;;11.30;1.00;;;;;;5037392;28;20227;-80
2022/04/28 07:57:41;;;;;;;19.20;12.33;;;11.40;1.00;;;;;;5057034;28;20622;-83
2022/04/28 08:00:08;;;;;;;14.93;11.70;;;11.50;1.00;;;;;;5056370;28;20213;-83
2022/04/28 08:02:36;;;;;;;17.80;12.07;;;11.60;1.00;;;;;;5056291;28;20664;-82
2022/04/28 08:05:04;;;;;;;19.37;13.20;;;11.80;1.00;;;;;;5058708;28;20169;-81
2022/04/28 08:07:30;;;;;;;18.57;12.00;;;11.80;1.00;;;;;;5057663;28;20208;-83
2022/04/28 08:09:56;;;;;;;18.53;12.07;;;11.90;99.90;;;;;;5056574;28;20177;-82
2022/04/28 08:12:22;;;;;;;17.80;12.60;;;11.70;99.90;;;;;;5056795;28;20226;-77
2022/04/28 08:14:48;;;;;;;21.53;12.67;;;11.70;99.90;;;;;;5056669;28;20315;-83
2022/04/28 08:17:14;;;;;;;16.27;12.07;;;11.80;99.90;;;;;;5056270;28;20269;-82
2022/04/28 08:19:40;;;;;;;17.33;11.80;;;11.90;99.90;;;;;;5056386;28;20177;-82
2022/04/28 08:22:05;;;;;;;18.57;12.33;;;11.90;99.90;;;;;;5056835;28;20300;-84
2022/04/28 08:24:32;;;;;;;19.57;11.87;;;11.90;99.90;;;;;;5057032;28;20169;-83
2022/04/28 08:26:58;;;;;;;18.83;13.30;;;11.80;99.90;;;;;;5029941;28;20182;-80
2022/04/28 08:29:24;;;;;;;20.37;12.80;;;11.90;99.90;;;;;;5018361;28;20178;-79
2022/04/28 08:31:50;;;;;;;19.07;12.23;;;12.20;99.90;;;;;;5019541;28;20171;-82
2022/04/28 08:34:21;;;;;;;18.47;13.03;;;12.30;99.90;;;;;;5021601;28;20201;-84
2022/04/28 08:36:48;;;;;;;17.00;11.10;;;12.40;99.90;;;;;;5024551;28;20170;-84
2022/04/28 08:39:14;;;;;;;16.23;11.87;;;12.40;1.00;;;;;;5021986;28;20171;-85
2022/04/28 08:41:42;;;;;;;20.37;11.63;;;12.60;1.00;;;;;;5021531;28;20214;-81
2022/04/28 08:44:16;;;;;;;17.00;12.53;;;12.40;17.40;;;;;;5021559;28;20194;-84
2022/04/28 08:46:51;;;;;;;19.30;12.93;;;12.40;1.00;;;;;;5020690;28;20178;-82
2022/04/28 08:49:18;;;;;;;18.80;13.40;;;12.50;99.90;;;;;;5024134;28;20165;-81
2022/04/28 08:51:44;;;;;;;23.97;13.20;;;12.70;1.00;;;;;;5021294;28;20202;-83
2022/04/28 08:54:12;;;;;;;20.10;12.20;;;13.00;1.00;;;;;;5019296;28;20167;-81
2022/04/28 08:56:42;;;;;;;17.53;12.00;;;13.10;99.90;;;;;;5019496;28;20179;-80
2022/04/28 08:59:08;;;;;;;20.87;13.57;;;13.10;50.80;;;;;;5019965;28;20635;-84
2022/04/28 09:01:34;;;;;;;19.77;12.47;;;13.30;1.00;;;;;;5020661;28;20224;-85
2022/04/28 09:04:02;;;;;;;18.40;12.90;;;13.30;1.00;;;;;;5021878;28;20181;-83
2022/04/28 09:06:35;;;;;;;17.77;12.70;;;13.20;1.00;;;;;;5018896;28;20181;-80
2022/04/28 09:09:04;;;;;;;17.73;12.43;;;13.20;16.60;;;;;;5016837;28;20175;-83
2022/04/28 09:11:32;;;;;;;17.63;12.93;;;13.30;99.90;;;;;;5018207;28;20160;-80
2022/04/28 09:14:09;;;;;;;17.23;12.60;;;13.40;99.90;;;;;;5017834;28;20262;-85
2022/04/28 09:16:40;;;;;;;15.60;11.37;;;13.50;1.00;;;;;;5031042;28;20569;-80
2022/04/28 09:19:06;;;;;;;20.50;13.23;;;13.60;1.00;;;;;;5043426;28;20173;-79
2022/04/28 09:21:34;;;;;;;18.53;13.13;;;13.70;1.00;;;;;;5040145;28;20667;-82
2022/04/28 09:24:00;;;;;;;19.80;14.03;;;13.80;99.90;;;;;;5036646;28;20623;-84
2022/04/28 09:26:27;;;;;;;18.87;13.27;;;13.90;99.90;;;;;;5036506;28;20179;-84
2022/04/28 09:28:54;;;;;;;17.10;13.67;;;14.00;99.90;;;;;;5036205;28;20150;-82
2022/04/28 09:31:25;;;;;;;17.10;12.43;;;14.00;1.00;;;;;;5035891;28;20298;-82
2022/04/28 09:33:51;;;;;;;20.23;13.07;;;14.20;1.00;;;;;;5036650;28;20632;-82
2022/04/28 09:36:17;;;;;;;18.97;12.47;;;14.30;99.90;;;;;;5033885;28;20198;-83
2022/04/28 09:38:44;;;;;;;20.60;13.67;;;14.40;1.00;;;;;;5036582;28;20192;-82
2022/04/28 09:43:55;;;;;;;17.67;12.33;;;14.60;1.00;;;;;;5016157;28;20627;-80
2022/04/28 09:46:24;;;;;;;20.43;12.20;;;14.60;1.00;;;;;;5015541;28;20164;-79
2022/04/28 09:48:51;;;;;;;22.13;12.17;;;14.80;1.00;;;;;;5015573;28;20174;-82
2022/04/28 09:51:25;;;;;;;14.77;11.93;;;14.60;44.40;;;;;;5016204;28;20187;-84
2022/04/28 09:53:51;;;;;;;17.37;12.27;;;14.80;1.00;;;;;;5015004;28;20185;-81
2022/04/28 09:56:24;;;;;;;20.20;12.70;;;14.90;1.00;;;;;;5019258;28;20295;-83
2022/04/28 09:58:51;;;;;;;16.70;12.13;;;15.00;99.90;;;;;;5033943;28;20172;-81
2022/04/28 10:01:17;;;;;;;15.90;12.90;;;15.00;99.90;;;;;;5034835;28;20218;-82
2022/04/28 10:03:43;;;;;;;20.73;13.67;;;15.10;99.90;;;;;;5035207;28;20175;-82
2022/04/28 10:06:09;;;;;;;17.80;12.70;;;15.20;1.00;;;;;;5035691;28;20188;-83
2022/04/28 10:08:36;;;;;;;15.30;12.87;;;15.10;99.90;;;;;;5035761;28;20180;-84
2022/04/28 10:11:06;;;;;;;16.97;12.83;;;15.10;1.00;;;;;;5034200;28;20196;-78
2022/04/28 10:13:33;;;;;;;18.87;13.10;;;15.30;1.00;;;;;;5037504;28;20180;-80
2022/04/28 10:16:06;;;;;;;18.00;12.90;;;15.40;1.00;;;;;;5039223;28;20166;-83
2022/04/28 10:18:58;;;;;;;15.43;11.73;;;15.30;1.00;;;;;;5057515;28;20267;-77
2022/04/28 10:21:32;;;;;;;15.13;11.17;;;15.50;1.00;;;;;;5049915;28;20230;-81
2022/04/28 10:33:05;;;;;;;16.67;12.30;;;15.60;1.00;;;;;;5037989;28;20595;-82
2022/04/28 10:35:39;;;;;;;17.77;11.53;;;15.90;1.00;;;;;;5041117;28;20182;-82
2022/04/28 10:38:12;;;;;;;15.33;11.97;;;15.90;99.90;;;;;;5055932;28;20160;-79
2022/04/28 10:40:54;;;;;;;18.67;12.77;;;15.80;1.00;;;;;;5069260;28;20224;-79
2022/04/28 10:43:32;;;;;;;17.47;12.53;;;15.80;99.90;;;;;;5053119;28;20169;-78
2022/04/28 10:46:04;;;;;;;14.67;12.43;;;15.90;99.90;;;;;;5056766;28;20221;-81
2022/04/28 10:48:40;;;;;;;16.57;12.50;;;16.10;33.40;;;;;;5069572;28;20212;-82
2022/04/28 10:51:10;;;;;;;15.13;12.33;;;16.30;1.00;;;;;;5042826;28;20220;-80
2022/04/28 10:54:01;;;;;;;14.67;11.83;;;16.50;1.00;;;;;;5039802;28;20170;-80
2022/04/28 10:56:40;;;;;;;17.87;11.47;;;16.50;99.90;;;;;;5036701;28;20166;-81
2022/04/28 11:02:10;;;;;;;15.57;11.30;;;16.50;99.90;;;;;;5034234;28;20276;-84
2022/04/28 11:04:45;;;;;;;16.47;13.03;;;16.50;1.00;;;;;;5035668;28;20675;-86
2022/04/28 11:07:15;;;;;;;18.23;12.10;;;16.50;97.30;;;;;;5035016;28;20187;-84
2022/04/28 11:09:44;;;;;;;15.30;11.70;;;16.50;99.90;;;;;;5034082;28;20259;-81
2022/04/28 11:12:18;;;;;;;14.83;11.70;;;16.60;99.90;;;;;;5033751;28;20169;-81
2022/04/28 11:14:45;;;;;;;17.57;12.10;;;16.60;99.90;;;;;;5033967;28;20178;-82
2022/04/28 11:17:11;;;;;;;15.83;12.17;;;16.70;99.90;;;;;;5034682;28;20182;-82
2022/04/28 11:19:37;;;;;;;16.90;12.30;;;16.80;7.80;;;;;;5051728;28;20201;-79
2022/04/28 11:22:03;;;;;;;15.53;11.83;;;16.90;1.00;;;;;;5052427;28;20203;-80
2022/04/28 11:24:29;;;;;;;19.27;11.60;;;17.10;1.00;;;;;;5048791;28;20344;-84
2022/04/28 11:26:58;;;;;;;15.17;11.73;;;17.20;1.00;;;;;;5047562;28;20235;-77
2022/04/28 11:29:24;;;;;;;15.23;11.13;;;17.10;1.00;;;;;;5063444;28;20176;-83
2022/04/28 11:31:53;;;;;;;15.33;12.33;;;17.10;1.00;;;;;;5064654;28;20174;-80
2022/04/28 11:34:18;;;;;;;16.67;11.47;;;17.10;1.00;;;;;;5071659;28;20169;-78
2022/04/28 11:36:44;;;;;;;14.67;12.03;;;17.20;1.00;;;;;;5065192;28;20200;-83
2022/04/28 11:39:10;;;;;;;17.17;12.03;;;17.10;1.00;;;;;;5072986;28;20177;-81
2022/04/28 11:41:39;;;;;;;15.00;12.10;;;17.20;1.00;;;;;;5056980;28;20212;-82
2022/04/28 11:44:07;;;;;;;18.73;11.73;;;17.20;1.00;;;;;;5056975;28;20528;-83
2022/04/28 11:46:48;;;;;;;16.17;12.60;;;17.30;1.00;;;;;;5057667;28;20204;-79
2022/04/28 11:49:14;;;;;;;14.77;11.77;;;17.30;1.00;;;;;;5057611;28;20698;-82
2022/04/28 11:51:39;;;;;;;17.60;12.00;;;17.30;1.00;;;;;;5057840;28;20169;-83
2022/04/28 11:54:19;;;;;;;14.17;11.47;;;17.40;1.00;;;;;;5073792;28;20260;-79
2022/04/28 11:56:45;;;;;;;12.83;11.43;;;17.60;1.00;;;;;;5058859;28;20177;-83
2022/04/28 11:59:11;;;;;;;15.70;11.97;;;17.70;99.90;;;;;;5058114;28;20198;-83
2022/04/28 12:01:39;;;;;;;19.50;13.07;;;17.60;99.90;;;;;;5057541;28;20205;-82
2022/04/28 12:04:05;;;;;;;15.97;12.17;;;17.40;99.90;;;;;;5057346;28;20163;-83
2022/04/28 12:06:31;;;;;;;14.50;12.40;;;17.40;1.00;;;;;;5057517;28;20173;-83
2022/04/28 12:14:21;;;;;;;14.23;11.80;;;17.50;99.90;;;;;;5057969;28;20166;-84
2022/04/28 12:14:31;;;;;;;13.17;11.40;;;17.90;99.90;;;;;;5058128;28;20177;-82
2022/04/28 12:20:04;;;;;;;16.33;11.60;;;17.90;99.90;;;;;;5057958;28;20186;-84
2022/04/28 12:22:40;;;;;;;13.67;11.63;;;17.80;99.90;;;;;;5056895;28;20219;-84
2022/04/28 12:25:17;;;;;;;12.67;11.33;;;17.60;99.90;;;;;;5057702;28;20681;-83
2022/04/28 12:27:51;;;;;;;16.20;11.20;;;17.70;99.90;;;;;;5057452;28;20231;-83
2022/04/28 12:30:18;;;;;;;14.23;11.67;;;17.80;99.90;;;;;;5057135;28;20633;-84
2022/04/28 12:32:53;;;;;;;16.00;11.40;;;18.00;99.90;;;;;;5056227;28;20206;-81
2022/04/28 12:35:32;;;;;;;14.90;11.43;;;18.00;99.90;;;;;;5057897;28;20164;-83
2022/04/28 12:38:06;;;;;;;13.53;10.50;;;18.00;99.90;;;;;;5061153;28;20655;-85
2022/04/28 12:40:44;;;;;;;13.70;11.93;;;18.00;99.90;;;;;;5064769;28;20236;-83
2022/04/28 12:43:10;;;;;;;14.77;12.03;;;18.00;99.90;;;;;;5057473;28;20187;-83
2022/04/28 12:45:49;;;;;;;14.20;11.90;;;17.90;99.90;;;;;;5038460;28;20230;-84
2022/04/28 12:48:32;;;;;;;18.03;12.57;;;18.00;99.90;;;;;;5038451;28;20180;-78
2022/04/28 12:51:18;;;;;;;14.27;10.63;;;18.30;99.90;;;;;;5048478;28;20231;-81
2022/04/28 12:54:08;;;;;;;13.67;10.90;;;18.40;99.90;;;;;;5046665;28;20175;-83
2022/04/28 12:56:34;;;;;;;15.03;11.67;;;18.60;99.90;;;;;;5038029;28;20241;-81
2022/04/28 12:59:04;;;;;;;16.70;11.67;;;18.70;99.90;;;;;;5038619;28;20582;-84
2022/04/28 13:01:31;;;;;;;18.57;13.17;;;18.90;99.90;;;;;;5035625;28;20241;-81
2022/04/28 13:04:09;;;;;;;14.17;11.53;;;18.90;99.90;;;;;;5036857;28;20166;-82
2022/04/28 13:06:38;;;;;;;16.10;12.17;;;19.10;99.90;;;;;;5036249;28;20170;-82
2022/04/28 13:09:07;;;;;;;14.57;11.73;;;19.10;99.90;;;;;;5037077;28;20172;-82
2022/04/28 13:11:35;;;;;;;13.53;11.73;;;19.10;91.70;;;;;;5045830;28;20193;-78
2022/04/28 13:14:04;;;;;;;13.80;11.13;;;18.80;92.30;;;;;;5056406;28;20154;-78
2022/04/28 13:16:30;;;;;;;14.03;11.83;;;18.70;99.90;;;;;;5055747;28;20199;-80
2022/04/28 13:18:57;;;;;;;15.57;11.80;;;18.80;99.90;;;;;;5056540;28;20166;-77
2022/04/28 13:21:23;;;;;;;17.37;12.60;;;18.60;99.90;;;;;;5057107;28;20236;-78
2022/04/28 13:23:51;;;;;;;17.20;13.40;;;18.70;88.30;;;;;;5052856;28;20677;-78